Weather at Protinal Heliport

Public forecast

Using degrees Celsius for public forecast. Weather courtesy of forecast.io.

Closest aviation weather report (METAR) to Protinal Heliport

Closest report is Arturo Michelena International Airport, 3.4 nm (6.4 km) SE. Retrieved 2022/01/28 12:03 UTC (13 minutes ago):

SVVA 281203Z AUTO 05004KT NCD ///// Q1013

Closest aviation forecast (TAF) to Protinal Heliport

Forecast is more than 12 hours old.

Closest forecast is Arturo Michelena International Airport, 3.4 nm (6.4 km) SE. Retrieved 2022-01-28 00:00 UTC (12 hours ago):

TAF SVVA 272200Z 2800/2900 02003KT 9999 BKN013 TX33/2819Z TN22/2807Z TEMPO 2802/2806 05001KT 9000 DZ BKN020